Time;durP1;ratioP1;P1;durP2;ratioP2;P2;SDS_P1;SDS_P2;PMS_P1;PMS_P2;Temp;Humidity;BMP_temperature;BMP_pressure;BME280_temperature;BME280_humidity;BME280_pressure;Samples;Min_cycle;Max_cycle;Signal;HPM_P1;HPM_P2
2023/01/21 00:00:39;;;;;;;55.92;31.25;;;-0.10;99.90;;;;;;6281807;22;20339;-88
2023/01/21 00:03:06;;;;;;;54.53;31.58;;;-2.10;99.90;;;;;;6256898;22;20046;-87
2023/01/21 00:05:31;;;;;;;52.88;31.55;;;-0.60;99.90;;;;;;6245926;22;20016;-88
2023/01/21 00:07:57;;;;;;;52.45;30.42;;;-1.30;99.90;;;;;;6244889;22;20016;-88
2023/01/21 00:10:23;;;;;;;50.35;29.58;;;-0.30;99.90;;;;;;6245350;22;20478;-87
2023/01/21 00:12:49;;;;;;;55.08;30.75;;;-0.80;99.90;;;;;;6245025;22;20364;-88
2023/01/21 00:15:15;;;;;;;60.38;31.27;;;-0.20;99.90;;;;;;6244068;22;20023;-88
2023/01/21 00:17:42;;;;;;;55.90;31.27;;;-1.50;99.90;;;;;;6245538;22;20012;-88
2023/01/21 00:20:10;;;;;;;52.88;30.23;;;-1.30;99.90;;;;;;6246650;22;20011;-89
2023/01/21 00:22:36;;;;;;;60.80;32.25;;;-1.50;99.90;;;;;;6247365;22;20348;-88
2023/01/21 00:25:03;;;;;;;58.53;31.67;;;-0.80;99.90;;;;;;6245984;22;20436;-88
2023/01/21 00:27:28;;;;;;;54.33;31.33;;;-1.60;99.90;;;;;;6246829;22;20397;-88
2023/01/21 00:29:57;;;;;;;62.28;33.63;;;-1.70;99.90;;;;;;6246632;22;20023;-88
2023/01/21 00:32:22;;;;;;;62.53;32.58;;;-1.60;99.90;;;;;;6246393;22;20452;-88
2023/01/21 00:34:48;;;;;;;60.30;31.83;;;-0.80;99.90;;;;;;6246185;22;20023;-87
2023/01/21 00:37:14;;;;;;;63.65;33.45;;;-1.70;99.90;;;;;;6271591;22;20448;-88
2023/01/21 00:39:41;;;;;;;62.25;32.88;;;-1.70;99.90;;;;;;6246676;22;20051;-88
2023/01/21 00:42:10;;;;;;;63.92;31.85;;;-1.40;99.90;;;;;;6271592;22;20003;-87
2023/01/21 00:44:37;;;;;;;59.50;32.58;;;-0.40;99.90;;;;;;6245818;22;20015;-87
2023/01/21 00:47:03;;;;;;;60.50;32.75;;;-1.70;99.90;;;;;;6244978;22;20028;-87
2023/01/21 00:49:29;;;;;;;58.20;29.75;;;-0.80;99.90;;;;;;6245575;22;20011;-88
2023/01/21 00:51:57;;;;;;;51.08;29.52;;;-1.80;99.90;;;;;;6245458;22;20022;-87
2023/01/21 00:54:23;;;;;;;57.63;31.13;;;-1.20;99.90;;;;;;6270543;22;20016;-87
2023/01/21 00:56:49;;;;;;;46.60;26.90;;;-1.90;99.90;;;;;;6244801;22;20053;-87
2023/01/21 00:59:15;;;;;;;58.15;31.92;;;-0.90;99.90;;;;;;6245761;22;20019;-87
2023/01/21 01:01:41;;;;;;;51.17;27.48;;;-2.00;99.90;;;;;;6245808;22;20016;-87
2023/01/21 01:04:07;;;;;;;55.50;30.13;;;-2.00;99.90;;;;;;6281212;22;20033;-88
2023/01/21 01:06:33;;;;;;;55.10;28.48;;;-0.90;99.90;;;;;;6280796;22;20010;-88
2023/01/21 01:08:59;;;;;;;63.13;32.38;;;-2.10;99.90;;;;;;6280981;22;20447;-87
2023/01/21 01:11:26;;;;;;;64.45;31.85;;;-2.10;99.90;;;;;;6281460;22;20022;-88
2023/01/21 01:13:53;;;;;;;53.53;29.48;;;-0.80;99.90;;;;;;6280719;22;20007;-88
2023/01/21 01:16:19;;;;;;;59.67;31.42;;;-2.10;99.90;;;;;;6281372;22;20015;-88
2023/01/21 01:18:45;;;;;;;63.72;32.58;;;-0.80;99.90;;;;;;6280737;22;20102;-88
2023/01/21 01:21:12;;;;;;;66.35;33.20;;;-2.10;99.90;;;;;;6281305;22;20090;-89
2023/01/21 01:23:38;;;;;;;57.83;31.27;;;-2.20;99.90;;;;;;6281501;22;20089;-88
2023/01/21 01:26:06;;;;;;;53.55;31.60;;;-1.80;99.90;;;;;;6281417;22;20049;-88
2023/01/21 01:28:33;;;;;;;67.88;34.35;;;-1.20;99.90;;;;;;6281627;22;20390;-88
2023/01/21 01:30:59;;;;;;;67.43;34.55;;;-2.20;99.90;;;;;;6281563;22;20015;-88
2023/01/21 01:33:26;;;;;;;67.57;33.15;;;-1.20;99.90;;;;;;6282410;22;20022;-88
2023/01/21 01:35:52;;;;;;;73.25;34.22;;;-2.20;99.90;;;;;;6281197;22;20021;-89
2023/01/21 01:38:20;;;;;;;87.65;37.88;;;-2.10;99.90;;;;;;6282129;22;20049;-88
2023/01/21 01:40:49;;;;;;;65.00;34.67;;;-2.00;99.90;;;;;;6280927;22;20316;-88
2023/01/21 01:43:19;;;;;;;73.15;35.10;;;-2.30;99.90;;;;;;6281274;22;20097;-87
2023/01/21 01:45:47;;;;;;;55.67;30.83;;;-2.30;99.90;;;;;;6280589;22;20021;-87
2023/01/21 01:48:19;;;;;;;61.67;32.30;;;-1.80;99.90;;;;;;6307426;22;20019;-88
2023/01/21 01:50:46;;;;;;;65.85;34.38;;;-2.30;99.90;;;;;;6279370;22;20098;-87
2023/01/21 01:53:14;;;;;;;65.50;35.03;;;-1.40;99.90;;;;;;6306638;22;20023;-87
2023/01/21 01:55:40;;;;;;;63.03;32.67;;;-2.40;99.90;;;;;;6280597;22;20471;-87
2023/01/21 01:58:10;;;;;;;69.55;33.80;;;-2.40;99.90;;;;;;6280535;22;20351;-88
2023/01/21 02:00:35;;;;;;;65.38;34.60;;;-2.40;99.90;;;;;;6280088;22;20014;-87
2023/01/21 02:05:47;;;;;;;69.22;35.92;;;-2.40;99.90;;;;;;6269444;22;20674;-87
2023/01/21 02:08:13;;;;;;;67.40;34.65;;;-2.50;99.90;;;;;;6295563;22;20012;-86
2023/01/21 02:10:38;;;;;;;56.75;30.27;;;-2.10;99.90;;;;;;6269825;22;20012;-87
2023/01/21 02:13:04;;;;;;;63.50;32.40;;;-2.50;99.90;;;;;;6269521;22;20087;-87
2023/01/21 02:15:48;;;;;;;60.88;31.25;;;-1.70;99.90;;;;;;6269026;22;20011;-87
2023/01/21 02:18:28;;;;;;;59.63;31.65;;;-2.50;99.90;;;;;;6268954;22;20511;-87
2023/01/21 02:21:21;;;;;;;58.58;31.10;;;-2.60;99.90;;;;;;6268762;22;20095;-87
2023/01/21 02:24:00;;;;;;;66.45;33.45;;;-2.60;99.90;;;;;;6268702;22;20031;-87
2023/01/21 02:26:47;;;;;;;69.95;35.42;;;-2.60;99.90;;;;;;6270015;22;20014;-88
2023/01/21 02:29:31;;;;;;;75.63;33.63;;;-2.60;99.90;;;;;;6295589;22;20027;-87
2023/01/21 02:32:06;;;;;;;;;;;-2.60;99.90;;;;;;6268760;22;20020;-87
2023/01/21 02:34:47;;;;;;;58.92;32.50;;;-2.60;99.90;;;;;;6244268;22;19990;-87
2023/01/21 02:37:24;;;;;;;70.45;34.70;;;-2.70;99.90;;;;;;6269984;22;20070;-87
2023/01/21 02:40:05;;;;;;;66.80;34.22;;;-2.70;99.90;;;;;;6267952;22;20452;-87
2023/01/21 02:42:42;;;;;;;66.93;34.58;;;-2.70;99.90;;;;;;6269516;22;20023;-87
2023/01/21 02:45:28;;;;;;;64.35;33.00;;;-2.70;99.90;;;;;;6267808;22;20043;-87
2023/01/21 02:48:05;;;;;;;73.68;36.20;;;-2.70;99.90;;;;;;6242581;22;20094;-87
2023/01/21 02:50:43;;;;;;;73.40;36.45;;;-2.80;99.90;;;;;;6269462;22;20068;-87
2023/01/21 02:53:23;;;;;;;65.07;33.00;;;-2.70;99.90;;;;;;6269635;22;20016;-87
2023/01/21 02:55:49;;;;;;;66.07;35.67;;;-2.80;99.90;;;;;;6243953;22;20448;-87
2023/01/21 02:58:18;;;;;;;79.07;38.45;;;-2.10;99.90;;;;;;6269302;22;20016;-87
2023/01/21 03:00:51;;;;;;;82.60;39.45;;;-2.80;99.90;;;;;;6268393;22;20380;-87
2023/01/21 03:03:22;;;;;;;73.80;38.53;;;-2.70;99.90;;;;;;6290394;22;20019;-87
2023/01/21 03:06:02;;;;;;;77.68;38.67;;;-2.70;99.90;;;;;;6274302;22;20085;-88
2023/01/21 03:08:36;;;;;;;72.30;37.33;;;-2.70;99.90;;;;;;6275480;22;20498;-87
2023/01/21 03:11:16;;;;;;;78.90;37.10;;;-2.70;99.90;;;;;;6274569;22;20011;-87
2023/01/21 03:16:56;;;;;;;75.10;37.90;;;-2.70;99.90;;;;;;6300789;22;20015;-87
2023/01/21 03:19:29;;;;;;;85.32;40.42;;;-2.70;99.90;;;;;;6274881;22;20019;-87
2023/01/21 03:22:03;;;;;;;64.93;34.83;;;-2.60;99.90;;;;;;6274223;22;20022;-87
2023/01/21 03:24:30;;;;;;;64.78;34.45;;;-2.80;99.90;;;;;;6275712;22;20011;-87
2023/01/21 03:26:59;;;;;;;64.18;35.28;;;-2.80;99.90;;;;;;6300226;22;20015;-87
2023/01/21 03:29:28;;;;;;;74.40;36.67;;;-2.90;99.90;;;;;;6273751;22;20094;-88
2023/01/21 03:32:02;;;;;;;71.28;37.30;;;-2.80;99.90;;;;;;6274056;22;20019;-87
2023/01/21 03:34:30;;;;;;;68.68;37.00;;;-2.70;99.90;;;;;;6274517;22;20016;-88
2023/01/21 03:37:03;;;;;;;79.72;40.22;;;-2.70;99.90;;;;;;6274032;22;20015;-88
2023/01/21 03:39:34;;;;;;;69.88;38.30;;;-2.50;99.90;;;;;;6274796;22;20038;-88
2023/01/21 03:42:01;;;;;;;72.97;38.10;;;-2.50;99.90;;;;;;6274641;22;20019;-87
2023/01/21 03:44:27;;;;;;;74.28;39.65;;;-1.80;99.90;;;;;;6301626;22;20019;-88
2023/01/21 03:47:09;;;;;;;79.80;39.60;;;-2.20;99.90;;;;;;6300208;22;20060;-87
2023/01/21 03:49:59;;;;;;;82.47;40.17;;;-2.10;99.90;;;;;;6273973;22;20031;-88
2023/01/21 03:52:26;;;;;;;88.78;43.35;;;-2.00;99.90;;;;;;6276477;22;20015;-87
2023/01/21 03:54:52;;;;;;;79.05;39.05;;;-1.90;99.90;;;;;;6302362;22;20016;-87
2023/01/21 03:57:18;;;;;;;74.93;36.40;;;-1.80;99.90;;;;;;6276979;22;20431;-88
2023/01/21 03:59:44;;;;;;;91.45;40.10;;;-1.60;99.90;;;;;;6277145;22;20023;-88
2023/01/21 04:02:10;;;;;;;78.97;40.08;;;-0.60;99.90;;;;;;6307123;22;20011;-88
2023/01/21 04:04:35;;;;;;;74.05;38.58;;;-1.70;99.90;;;;;;6283397;22;20022;-88
2023/01/21 04:07:01;;;;;;;77.53;38.13;;;-1.40;99.90;;;;;;6283253;22;20018;-89
2023/01/21 04:09:27;;;;;;;79.05;38.92;;;-1.60;99.90;;;;;;6283091;22;20015;-89
2023/01/21 04:11:53;;;;;;;86.78;41.17;;;-1.50;99.90;;;;;;6283681;22;20579;-89
2023/01/21 04:14:18;;;;;;;82.95;38.30;;;-0.60;99.90;;;;;;6283264;22;20021;-89
2023/01/21 04:16:44;;;;;;;79.00;39.30;;;-0.70;99.90;;;;;;6282347;22;20103;-89
2023/01/21 04:19:09;;;;;;;89.63;40.08;;;-1.40;99.90;;;;;;6283670;22;20026;-89
2023/01/21 04:21:35;;;;;;;75.95;38.67;;;-1.30;99.90;;;;;;6283763;22;20446;-89
2023/01/21 04:24:01;;;;;;;81.32;38.83;;;-0.90;99.90;;;;;;6283318;22;20442;-89
2023/01/21 04:26:26;;;;;;;86.50;39.42;;;-1.10;99.90;;;;;;6283634;22;20312;-89
2023/01/21 04:28:52;;;;;;;81.85;38.08;;;-1.20;99.90;;;;;;6308888;22;20015;-89
2023/01/21 04:31:18;;;;;;;77.85;36.08;;;-0.30;99.90;;;;;;6283107;22;20022;-88
2023/01/21 04:33:43;;;;;;;80.68;41.38;;;-1.20;99.90;;;;;;6282729;22;20021;-88
2023/01/21 04:36:09;;;;;;;79.85;41.67;;;-0.50;99.90;;;;;;6283722;22;20451;-89
2023/01/21 04:38:35;;;;;;;89.07;42.90;;;-1.30;99.90;;;;;;6283066;22;20097;-89
2023/01/21 04:41:00;;;;;;;90.80;43.67;;;-0.10;99.90;;;;;;6282972;22;20384;-89
2023/01/21 04:43:26;;;;;;;116.30;44.63;;;-0.10;99.90;;;;;;6283177;22;20015;-88
2023/01/21 04:45:51;;;;;;;82.30;39.55;;;-1.20;99.90;;;;;;6281074;22;20043;-90
2023/01/21 04:48:17;;;;;;;90.05;42.28;;;-1.10;99.90;;;;;;6283125;22;20022;-89
2023/01/21 04:50:45;;;;;;;78.72;39.88;;;-0.90;99.90;;;;;;6308104;22;20007;-86
2023/01/21 04:53:10;;;;;;;81.68;40.72;;;-1.00;99.90;;;;;;6283415;22;20021;-89
2023/01/21 04:55:36;;;;;;;84.35;40.80;;;-1.20;99.90;;;;;;6309474;22;20336;-89
2023/01/21 04:58:01;;;;;;;80.10;40.25;;;-0.40;99.90;;;;;;6308442;22;20022;-90
2023/01/21 05:00:27;;;;;;;85.57;42.53;;;-1.10;99.90;;;;;;6283433;22;20351;-90
2023/01/21 05:02:53;;;;;;;85.05;41.60;;;-0.80;99.90;;;;;;6271455;22;20023;-89
2023/01/21 05:05:19;;;;;;;90.25;42.05;;;-1.10;99.90;;;;;;6273742;22;20149;-87
2023/01/21 05:07:45;;;;;;;87.45;43.17;;;-1.00;99.90;;;;;;6247449;22;20012;-89
2023/01/21 05:10:15;;;;;;;81.57;41.03;;;-0.30;99.90;;;;;;6272955;22;20026;-90
2023/01/21 05:12:41;;;;;;;83.85;41.47;;;-1.10;99.90;;;;;;6273174;22;20012;-89
2023/01/21 05:15:07;;;;;;;87.25;41.55;;;-0.70;99.90;;;;;;6272308;22;20107;-89
2023/01/21 05:17:33;;;;;;;89.10;40.90;;;-1.10;99.90;;;;;;6273082;22;20020;-89
2023/01/21 05:19:59;;;;;;;85.00;39.40;;;-0.70;99.90;;;;;;6246561;22;20023;-89
2023/01/21 05:22:24;;;;;;;91.25;41.20;;;-0.20;99.90;;;;;;6273161;22;20073;-89
2023/01/21 05:24:50;;;;;;;86.55;40.25;;;-1.30;99.90;;;;;;6246862;22;20023;-89
2023/01/21 05:27:16;;;;;;;75.00;36.63;;;-1.40;99.90;;;;;;6246558;22;20012;-88
2023/01/21 05:29:42;;;;;;;78.40;37.90;;;-0.70;99.90;;;;;;6272060;22;20444;-88
2023/01/21 05:32:09;;;;;;;69.05;36.03;;;-1.40;99.90;;;;;;6246051;22;20034;-89
2023/01/21 05:34:34;;;;;;;75.07;36.95;;;-1.10;99.90;;;;;;6271386;22;20059;-88
2023/01/21 05:37:00;;;;;;;73.57;35.95;;;-1.60;99.90;;;;;;6271207;22;20016;-89
2023/01/21 05:39:26;;;;;;;63.30;35.22;;;-1.00;99.90;;;;;;6245578;22;20019;-88
2023/01/21 05:41:51;;;;;;;65.15;34.78;;;-0.80;99.90;;;;;;6270262;22;20016;-87
2023/01/21 05:44:17;;;;;;;70.55;34.15;;;-1.40;99.90;;;;;;6270888;22;20054;-86
2023/01/21 05:46:42;;;;;;;72.75;36.83;;;-1.70;99.90;;;;;;6244407;22;20436;-86
2023/01/21 05:49:08;;;;;;;73.00;36.05;;;-2.00;99.90;;;;;;6244933;22;20095;-87
2023/01/21 05:51:34;;;;;;;68.85;37.70;;;-2.00;99.90;;;;;;6244583;22;20081;-88
2023/01/21 05:53:59;;;;;;;71.45;36.97;;;-1.30;99.90;;;;;;6244251;22;20030;-87
2023/01/21 05:56:25;;;;;;;80.20;36.97;;;-2.10;99.90;;;;;;6244776;22;20016;-87
2023/01/21 05:58:51;;;;;;;72.63;35.35;;;-1.90;99.90;;;;;;6269096;22;20055;-87
2023/01/21 06:01:16;;;;;;;77.22;37.90;;;-2.20;99.90;;;;;;6268911;22;20020;-87
2023/01/21 06:03:42;;;;;;;77.38;36.65;;;-2.00;99.90;;;;;;6291094;22;20027;-87
2023/01/21 06:06:08;;;;;;;72.65;37.38;;;-2.20;99.90;;;;;;6300790;22;20019;-86
2023/01/21 06:08:33;;;;;;;75.32;37.67;;;-2.20;99.90;;;;;;6275151;22;20086;-87
2023/01/21 06:10:59;;;;;;;75.05;38.28;;;-2.30;99.90;;;;;;6298950;22;20019;-87
2023/01/21 06:13:25;;;;;;;72.32;36.25;;;-2.30;99.90;;;;;;6275128;22;20038;-88
2023/01/21 06:15:54;;;;;;;87.28;39.63;;;-1.70;99.90;;;;;;6272476;22;20023;-87
2023/01/21 06:18:20;;;;;;;72.78;36.58;;;-2.40;99.90;;;;;;6274855;22;20019;-87
2023/01/21 06:20:47;;;;;;;77.75;37.50;;;-2.40;99.90;;;;;;6274099;22;20022;-87
2023/01/21 06:23:13;;;;;;;77.13;37.65;;;-1.60;99.90;;;;;;6300047;22;20019;-87
2023/01/21 06:25:39;;;;;;;85.95;38.28;;;-2.20;99.90;;;;;;6275009;22;20018;-87
2023/01/21 06:28:05;;;;;;;76.90;37.95;;;-1.90;99.90;;;;;;6273663;22;20046;-87
2023/01/21 06:30:32;;;;;;;87.88;40.30;;;-1.80;99.90;;;;;;6273561;22;20760;-86
2023/01/21 06:32:57;;;;;;;94.13;40.75;;;-1.70;99.90;;;;;;6298685;22;20026;-87
2023/01/21 06:35:23;;;;;;;80.82;39.08;;;-2.70;99.90;;;;;;6274774;22;20011;-87
2023/01/21 06:37:49;;;;;;;95.22;41.00;;;-2.70;99.90;;;;;;6299274;22;20025;-86
2023/01/21 06:40:15;;;;;;;86.63;38.83;;;-2.70;99.90;;;;;;6274188;22;20067;-86
2023/01/21 06:42:44;;;;;;;75.85;38.13;;;-2.70;99.90;;;;;;6274683;22;20023;-87
2023/01/21 06:45:10;;;;;;;82.15;38.45;;;-2.70;99.90;;;;;;6273898;22;20007;-88
2023/01/21 06:47:39;;;;;;;91.03;38.88;;;-1.70;99.90;;;;;;6275084;22;20050;-86
2023/01/21 06:50:05;;;;;;;79.55;37.78;;;-2.80;99.90;;;;;;6300230;22;20023;-86
2023/01/21 06:52:31;;;;;;;88.03;37.42;;;-2.80;99.90;;;;;;6274840;22;20385;-88
2023/01/21 06:54:57;;;;;;;96.45;44.78;;;-1.50;99.90;;;;;;6275007;22;20043;-88
2023/01/21 06:57:23;;;;;;;69.28;35.33;;;-2.80;99.90;;;;;;6275574;22;20447;-88
2023/01/21 06:59:49;;;;;;;83.25;39.55;;;-2.50;99.90;;;;;;6276515;22;20063;-88
2023/01/21 07:02:15;;;;;;;83.97;38.90;;;-2.30;99.90;;;;;;6304763;22;20320;-87
2023/01/21 07:04:40;;;;;;;64.65;34.92;;;-3.10;99.90;;;;;;6282208;22;20057;-88
2023/01/21 07:07:06;;;;;;;77.15;38.97;;;-2.60;99.90;;;;;;6304019;22;20524;-87
2023/01/21 07:09:32;;;;;;;84.35;39.35;;;-2.40;99.90;;;;;;6278407;22;20014;-86
2023/01/21 07:11:58;;;;;;;92.55;41.47;;;-2.80;99.90;;;;;;6279740;22;20475;-81
2023/01/21 07:14:24;;;;;;;96.28;42.92;;;-3.20;99.90;;;;;;6277407;22;20073;-82
2023/01/21 07:16:49;;;;;;;114.57;44.88;;;-1.90;99.90;;;;;;6303648;22;20019;-82
2023/01/21 07:19:15;;;;;;;83.22;40.47;;;-2.20;99.90;;;;;;6303939;22;20022;-81
2023/01/21 07:21:41;;;;;;;87.90;42.60;;;-3.00;99.90;;;;;;6278720;22;20019;-81
2023/01/21 07:24:08;;;;;;;92.95;44.33;;;-3.00;99.90;;;;;;6304186;22;20022;-81
2023/01/21 07:26:36;;;;;;;90.65;41.20;;;-3.00;99.90;;;;;;6303255;22;20022;-81
2023/01/21 07:29:04;;;;;;;80.30;40.08;;;-3.10;99.90;;;;;;6304063;22;20484;-81
2023/01/21 07:31:30;;;;;;;84.93;40.55;;;-2.10;99.90;;;;;;6303197;22;20026;-81
2023/01/21 07:33:56;;;;;;;110.32;46.88;;;-3.10;99.90;;;;;;6302802;22;20011;-82
2023/01/21 07:36:22;;;;;;;121.75;49.55;;;-2.60;99.90;;;;;;6303704;22;20466;-82
2023/01/21 07:38:47;;;;;;;124.10;50.95;;;-1.80;99.90;;;;;;6331693;22;20118;-82
2023/01/21 07:41:13;;;;;;;121.40;50.38;;;-2.20;99.90;;;;;;6303193;22;20076;-83
2023/01/21 07:43:39;;;;;;;126.10;52.17;;;-2.80;99.90;;;;;;6278265;22;20011;-82
2023/01/21 07:46:04;;;;;;;129.23;52.03;;;-2.70;99.90;;;;;;6302994;22;20318;-81
2023/01/21 07:48:30;;;;;;;86.55;41.65;;;-2.70;99.90;;;;;;6303606;22;20015;-83
2023/01/21 07:50:58;;;;;;;104.65;44.35;;;-2.70;99.90;;;;;;6303238;22;20049;-82
2023/01/21 07:53:24;;;;;;;98.95;43.45;;;-2.70;99.90;;;;;;6278913;22;20019;-82
2023/01/21 07:55:50;;;;;;;97.63;46.10;;;-2.80;99.90;;;;;;6302089;22;20011;-82
2023/01/21 07:58:15;;;;;;;88.28;42.17;;;-2.80;99.90;;;;;;6304569;22;20114;-82
2023/01/21 08:00:41;;;;;;;106.40;43.63;;;-2.80;99.90;;;;;;6303262;22;20015;-82
2023/01/21 08:03:07;;;;;;;91.68;44.45;;;-2.80;99.90;;;;;;6301918;22;20021;-83
2023/01/21 08:05:33;;;;;;;95.20;42.00;;;-2.80;99.90;;;;;;6278374;22;20027;-83
2023/01/21 08:07:58;;;;;;;108.72;45.58;;;-2.80;99.90;;;;;;6302926;22;20022;-83
2023/01/21 08:10:25;;;;;;;91.30;43.08;;;-2.80;99.90;;;;;;6277419;22;20023;-82
2023/01/21 08:12:51;;;;;;;97.05;43.55;;;-2.80;99.90;;;;;;6277907;22;20029;-83
2023/01/21 08:15:16;;;;;;;98.22;44.78;;;-2.40;99.90;;;;;;6303518;22;20015;-83
2023/01/21 08:17:43;;;;;;;95.80;44.03;;;-2.90;99.90;;;;;;6302873;22;20025;-84
2023/01/21 08:20:10;;;;;;;92.32;44.38;;;-2.50;99.90;;;;;;6278068;22;20018;-83
2023/01/21 08:22:37;;;;;;;102.45;44.50;;;-2.70;99.90;;;;;;6303598;22;20085;-84
2023/01/21 08:25:04;;;;;;;95.20;43.65;;;-2.60;99.90;;;;;;6303635;22;20018;-84
2023/01/21 08:27:31;;;;;;;92.85;41.65;;;-2.60;99.90;;;;;;6304042;22;20011;-83
2023/01/21 08:29:56;;;;;;;93.22;42.90;;;-2.10;99.90;;;;;;6302477;22;20023;-83
2023/01/21 08:32:22;;;;;;;85.63;41.20;;;-2.60;99.90;;;;;;6303206;22;20014;-83
2023/01/21 08:34:49;;;;;;;89.55;42.30;;;-2.60;99.90;;;;;;6276495;22;20037;-83
2023/01/21 08:37:14;;;;;;;102.07;46.20;;;-2.60;99.90;;;;;;6302496;22;20019;-83
2023/01/21 08:39:40;;;;;;;101.03;44.35;;;-1.70;99.90;;;;;;6305842;22;20037;-86
2023/01/21 08:42:06;;;;;;;119.53;50.38;;;-2.60;99.90;;;;;;6304937;22;20335;-83
2023/01/21 08:44:31;;;;;;;92.10;45.13;;;-2.60;99.90;;;;;;6304151;22;20018;-84
2023/01/21 08:46:57;;;;;;;94.85;43.83;;;-1.10;99.90;;;;;;6279127;22;20101;-84
2023/01/21 08:49:23;;;;;;;89.18;43.80;;;-1.40;99.90;;;;;;6305438;22;20094;-84
2023/01/21 08:51:49;;;;;;;81.95;40.55;;;-2.50;99.90;;;;;;6304555;22;20444;-84
2023/01/21 08:54:15;;;;;;;69.97;37.72;;;-2.50;99.90;;;;;;6306005;22;20011;-84
2023/01/21 08:56:40;;;;;;;92.75;41.90;;;-2.50;99.90;;;;;;6305374;22;20011;-85
2023/01/21 08:59:06;;;;;;;80.60;41.90;;;-1.90;99.90;;;;;;6278041;22;20097;-84
2023/01/21 09:01:34;;;;;;;80.50;41.33;;;-2.50;99.90;;;;;;6305053;22;20085;-84
2023/01/21 09:04:01;;;;;;;92.38;42.92;;;-2.50;99.90;;;;;;6248823;22;20431;-84
2023/01/21 09:06:28;;;;;;;81.63;41.35;;;-1.90;99.90;;;;;;6268754;22;20050;-83
2023/01/21 09:08:55;;;;;;;82.43;40.50;;;-2.50;99.90;;;;;;6269245;22;20046;-83
2023/01/21 09:11:21;;;;;;;79.95;40.20;;;-1.90;99.90;;;;;;6244303;22;20073;-84
2023/01/21 09:13:47;;;;;;;90.18;41.97;;;-1.30;99.90;;;;;;6242259;22;20023;-84
2023/01/21 09:16:15;;;;;;;103.30;44.17;;;-1.20;99.90;;;;;;6243477;22;20011;-84
2023/01/21 09:18:41;;;;;;;93.68;43.55;;;-2.20;99.90;;;;;;6243900;22;20019;-84
2023/01/21 09:21:08;;;;;;;89.93;44.28;;;-2.20;99.90;;;;;;6242716;22;20012;-83
2023/01/21 09:23:34;;;;;;;88.38;43.00;;;-2.00;99.90;;;;;;6269585;22;20080;-84
2023/01/21 09:26:02;;;;;;;92.32;44.78;;;-1.90;99.90;;;;;;6242744;22;20307;-84
2023/01/21 09:28:28;;;;;;;108.22;46.88;;;-0.60;99.90;;;;;;6244693;22;20014;-84
2023/01/21 09:30:57;;;;;;;88.72;42.03;;;-1.70;99.90;;;;;;6267694;22;20036;-84
2023/01/21 09:33:24;;;;;;;78.93;38.95;;;-0.70;99.90;;;;;;6243157;22;20022;-83
2023/01/21 09:35:55;;;;;;;93.53;43.15;;;-1.40;99.90;;;;;;6267843;22;20439;-83
2023/01/21 09:38:21;;;;;;;99.38;42.83;;;-1.20;99.90;;;;;;6269347;22;20097;-84
2023/01/21 09:40:47;;;;;;;105.18;44.83;;;-0.30;99.90;;;;;;6241136;22;20428;-83
2023/01/21 09:43:23;;;;;;;85.50;41.58;;;-1.00;99.90;;;;;;6269065;22;20475;-83
2023/01/21 09:45:52;;;;;;;87.75;40.72;;;-0.80;99.90;;;;;;6266723;22;20022;-84
2023/01/21 09:48:33;;;;;;;91.13;40.28;;;-0.70;99.90;;;;;;6268393;22;20045;-84
2023/01/21 09:51:04;;;;;;;75.57;37.00;;;-0.70;99.90;;;;;;6268214;22;20016;-85
2023/01/21 09:53:40;;;;;;;79.20;37.72;;;-0.60;99.90;;;;;;6253099;22;20046;-85
2023/01/21 09:56:25;;;;;;;76.80;36.67;;;-0.40;99.90;;;;;;6241256;22;20451;-85
2023/01/21 09:59:02;;;;;;;74.35;36.63;;;-0.50;99.90;;;;;;6242555;22;20015;-84
2023/01/21 10:01:33;;;;;;;65.82;33.08;;;-0.40;99.90;;;;;;6241326;22;20008;-84
2023/01/21 10:04:27;;;;;;;64.63;31.63;;;0.70;99.90;;;;;;6262213;22;20020;-84
2023/01/21 10:07:00;;;;;;;62.25;31.35;;;-0.30;99.90;;;;;;6293173;22;20054;-84
2023/01/21 10:09:34;;;;;;;61.08;31.63;;;0.80;99.90;;;;;;6267725;22;20169;-84
2023/01/21 10:12:16;;;;;;;56.70;30.58;;;0.00;99.90;;;;;;6268092;22;20011;-84
2023/01/21 10:14:49;;;;;;;56.45;29.33;;;0.10;99.90;;;;;;6267970;22;20019;-84
2023/01/21 10:17:23;;;;;;;60.38;30.48;;;0.80;99.90;;;;;;6241359;22;20022;-84
2023/01/21 10:19:54;;;;;;;57.35;30.60;;;0.30;99.90;;;;;;6267914;22;20027;-84
2023/01/21 10:22:24;;;;;;;56.00;28.25;;;0.80;99.90;;;;;;6293771;22;20091;-84
2023/01/21 10:24:59;;;;;;;54.28;28.50;;;1.00;99.90;;;;;;6267429;22;20019;-84
2023/01/21 10:27:27;;;;;;;51.97;27.52;;;0.50;99.90;;;;;;6294536;22;20025;-84
2023/01/21 10:29:59;;;;;;;52.30;27.70;;;0.50;99.90;;;;;;6291728;22;20452;-84
2023/01/21 10:32:26;;;;;;;55.67;27.90;;;0.90;99.90;;;;;;6268088;22;20343;-84
2023/01/21 10:34:55;;;;;;;53.90;28.02;;;0.70;99.90;;;;;;6293411;22;20020;-84
2023/01/21 10:37:29;;;;;;;49.25;27.70;;;1.10;99.90;;;;;;6268124;22;20008;-83
2023/01/21 10:40:03;;;;;;;;;;;1.50;99.90;;;;;;6268432;22;20408;-84
2023/01/21 10:42:41;;;;;;;50.00;28.30;;;0.80;99.90;;;;;;6242130;22;19911;-83
2023/01/21 10:45:27;;;;;;;52.28;27.17;;;0.90;99.90;;;;;;6265392;22;20093;-83
2023/01/21 10:48:08;;;;;;;43.63;26.42;;;0.90;99.90;;;;;;6266748;22;20550;-83
2023/01/21 10:50:43;;;;;;;46.33;26.33;;;1.00;99.90;;;;;;6292648;22;20153;-83
2023/01/21 10:53:18;;;;;;;46.80;27.77;;;1.00;99.90;;;;;;6294332;22;20066;-83
2023/01/21 10:55:54;;;;;;;49.90;28.40;;;1.10;99.90;;;;;;6267395;22;20091;-83
2023/01/21 10:58:32;;;;;;;61.33;29.27;;;1.90;99.90;;;;;;6267838;22;20463;-83
2023/01/21 11:01:02;;;;;;;45.08;26.52;;;1.30;99.90;;;;;;6291756;22;20069;-84
2023/01/21 11:03:33;;;;;;;47.38;25.35;;;1.30;99.90;;;;;;6294059;22;20041;-82
2023/01/21 11:06:03;;;;;;;41.03;25.02;;;1.40;99.90;;;;;;6292424;22;20470;-83
2023/01/21 11:08:29;;;;;;;36.13;23.13;;;1.40;99.90;;;;;;6267929;22;20066;-83
2023/01/21 11:10:55;;;;;;;39.40;23.80;;;1.40;99.90;;;;;;6267377;22;20325;-83
2023/01/21 11:13:21;;;;;;;38.33;23.02;;;1.50;99.90;;;;;;6267803;22;20113;-83
2023/01/21 11:15:53;;;;;;;34.75;22.42;;;1.60;99.90;;;;;;6265936;22;20016;-83
2023/01/21 11:18:29;;;;;;;34.78;21.23;;;1.60;99.90;;;;;;6293907;22;20019;-83
2023/01/21 11:20:58;;;;;;;32.05;20.33;;;1.60;99.90;;;;;;6293291;22;20054;-83
2023/01/21 11:23:27;;;;;;;35.95;20.63;;;2.30;99.90;;;;;;6293847;22;20020;-84
2023/01/21 11:26:01;;;;;;;31.88;20.17;;;1.70;99.90;;;;;;6292243;22;20452;-84
2023/01/21 11:28:29;;;;;;;34.80;20.55;;;2.60;99.90;;;;;;6268025;22;20015;-84
2023/01/21 11:31:09;;;;;;;31.95;19.10;;;2.50;99.90;;;;;;6292052;22;20027;-84
2023/01/21 11:33:36;;;;;;;26.70;18.42;;;1.80;99.90;;;;;;6292988;22;20340;-84
2023/01/21 11:36:12;;;;;;;30.65;17.52;;;2.70;99.90;;;;;;6292636;22;20050;-84
2023/01/21 11:38:38;;;;;;;27.77;18.23;;;1.90;99.90;;;;;;6293720;22;20019;-84
2023/01/21 11:41:14;;;;;;;26.60;17.83;;;1.90;99.90;;;;;;6266383;22;20408;-83
2023/01/21 11:43:40;;;;;;;26.67;16.58;;;2.40;99.90;;;;;;6267517;22;20117;-83
2023/01/21 11:46:21;;;;;;;25.95;16.95;;;2.00;99.90;;;;;;6266814;22;20020;-84
2023/01/21 11:48:47;;;;;;;18.67;13.68;;;2.10;99.90;;;;;;6269293;22;20012;-84
2023/01/21 11:51:13;;;;;;;20.02;14.55;;;2.50;99.90;;;;;;6268536;22;20057;-84
2023/01/21 11:53:40;;;;;;;25.05;14.90;;;2.20;99.90;;;;;;6267704;22;20007;-84
2023/01/21 11:56:06;;;;;;;22.83;14.82;;;3.10;99.90;;;;;;6267801;22;20027;-84
2023/01/21 11:58:35;;;;;;;22.55;14.23;;;2.30;99.90;;;;;;6268300;22;20019;-83
2023/01/21 12:01:06;;;;;;;20.85;14.02;;;3.10;99.90;;;;;;6266760;22;20046;-84
2023/01/21 12:03:39;;;;;;;22.02;14.75;;;2.30;99.90;;;;;;6294077;22;20055;-84
2023/01/21 12:06:06;;;;;;;18.52;13.15;;;2.70;99.90;;;;;;6267937;22;20015;-84
2023/01/21 12:08:35;;;;;;;18.77;13.18;;;2.40;99.90;;;;;;6293293;22;20062;-84
2023/01/21 12:11:04;;;;;;;19.80;13.32;;;2.40;99.90;;;;;;6267903;22;20461;-84
2023/01/21 12:13:42;;;;;;;17.10;11.93;;;2.40;99.90;;;;;;6295867;22;20090;-84
2023/01/21 12:16:12;;;;;;;20.08;12.95;;;2.50;99.90;;;;;;6293350;22;20046;-84
2023/01/21 12:18:48;;;;;;;16.65;12.27;;;2.50;99.90;;;;;;6245078;22;20051;-84
2023/01/21 12:21:38;;;;;;;19.35;12.02;;;2.60;99.90;;;;;;6270361;22;20075;-83
2023/01/21 12:24:17;;;;;;;14.50;9.65;;;2.60;99.90;;;;;;6295290;22;20023;-83
2023/01/21 12:26:49;;;;;;;17.35;10.85;;;2.60;99.90;;;;;;6269730;22;20352;-83
2023/01/21 12:29:27;;;;;;;16.25;10.38;;;3.00;99.90;;;;;;6243269;22;20027;-83
2023/01/21 12:32:18;;;;;;;17.88;10.70;;;2.70;99.90;;;;;;6294195;22;20011;-82
2023/01/21 12:34:54;;;;;;;11.15;8.48;;;2.70;99.90;;;;;;6294173;22;20023;-82
2023/01/21 12:37:30;;;;;;;12.90;8.27;;;2.80;99.90;;;;;;6269403;22;20015;-81
2023/01/21 12:39:58;;;;;;;9.80;6.60;;;2.80;99.90;;;;;;6268628;22;20016;-83
2023/01/21 12:42:32;;;;;;;9.18;6.57;;;3.50;99.90;;;;;;6272092;22;20361;-82